| time (UTC) | temp C | wind direction | speed KPH | gust KPH | rain 1hr cm | rain 24hr cm | rain mn cm | humidity % | barometer mb |
| 20260506091506 | 10 | 360 | 0.0 | 3.2 | 0.00 | 0.05 | 0.00 | 92 | 1008.5 |
| 20260506090012 | 11 | 340 | 0.0 | 3.2 | 0.00 | 0.05 | 0.00 | 92 | 1008.3 |
| 20260506083010 | 11 | 300 | 0.0 | 3.2 | 0.00 | 0.05 | 0.00 | 91 | 1008.6 |
| 20260506081503 | 11 | 121 | 0.0 | 0.0 | 0.00 | 0.05 | 0.00 | 90 | 1008.5 |
| 20260506073014 | 12 | 121 | 0.0 | 0.0 | 0.00 | 0.05 | 0.00 | 88 | 1008.6 |
| 20260506071514 | 12 | 121 | 0.0 | 0.0 | 0.00 | 0.05 | 0.00 | 87 | 1008.6 |
| 20260506044520 | 15 | 173 | 0.0 | 3.2 | 0.00 | 0.05 | 0.00 | 80 | 1008.7 |
| 20260506043012 | 15 | 106 | 0.0 | 3.2 | 0.00 | 0.05 | 0.00 | 79 | 1008.6 |
| 20260506041515 | 15 | 93 | 0.0 | 3.2 | 0.00 | 0.05 | 0.00 | 78 | 1008.6 |
| 20260506040021 | 16 | 47 | 1.6 | 4.8 | 0.00 | 0.05 | 0.00 | 77 | 1008.7 |
| 20260506034514 | 16 | 277 | 0.0 | 6.4 | 0.00 | 0.05 | 0.05 | 76 | 1008.6 |
| 20260506033016 | 16 | 234 | 0.0 | 4.8 | 0.00 | 0.05 | 0.05 | 77 | 1008.6 |
| 20260506024534 | 16 | 55 | 0.0 | 3.2 | 0.00 | 0.05 | 0.05 | 93 | 1008.6 |
| 20260506023018 | 16 | 68 | 0.0 | 0.0 | 0.00 | 0.05 | 0.05 | 93 | 1008.6 |
| 20260506021520 | 16 | 46 | 0.0 | 0.0 | 0.00 | 0.05 | 0.05 | 92 | 1008.6 |
| 20260506013020 | 16 | 46 | 0.0 | 3.2 | 0.00 | 0.05 | 0.05 | 91 | 1008.3 |
| 20260506011551 | 16 | 46 | 0.0 | 3.2 | 0.00 | 0.05 | 0.05 | 91 | 1008.2 |
| 20260506010020 | 16 | 150 | 0.0 | 3.2 | 0.00 | 0.05 | 0.05 | 90 | 1008.0 |
| 20260506004517 | 16 | 173 | 0.0 | 0.0 | 0.00 | 0.05 | 0.05 | 90 | 1007.9 |
| 20260506001519 | 16 | 117 | 0.0 | 0.0 | 0.05 | 0.05 | 0.05 | 87 | 1007.6 |
| 20260506000042 | 17 | 117 | 0.0 | 3.2 | 0.05 | 0.05 | 0.05 | 86 | 1007.8 |
| 20260505234537 | 18 | 71 | 1.6 | 3.2 | 0.05 | 0.05 | 0.05 | 79 | 1007.5 |
| 20260505230046 | 24 | 217 | 3.2 | 16.1 | 0.00 | 0.00 | 0.00 | 43 | 1005.0 |
| 20260505224534 | 25 | 182 | 1.6 | 11.3 | 0.00 | 0.00 | 0.00 | 43 | 1005.1 |
| 20260505221504 | 26 | 224 | 3.2 | 20.9 | 0.00 | 0.00 | 0.00 | 40 | 1004.5 |
| 20260505220005 | 26 | 258 | 3.2 | 20.9 | 0.00 | 0.00 | 0.00 | 33 | 1004.3 |
| 20260505214514 | 26 | 193 | 1.6 | 20.9 | 0.00 | 0.00 | 0.00 | 32 | 1004.4 |
| 20260505213012 | 26 | 194 | 4.8 | 14.5 | 0.00 | 0.00 | 0.00 | 33 | 1004.4 |
| 20260505211526 | 27 | 180 | 3.2 | 14.5 | 0.00 | 0.00 | 0.00 | 33 | 1004.0 |
| 20260505210007 | 26 | 317 | 1.6 | 12.9 | 0.00 | 0.00 | 0.00 | 34 | 1003.9 |
| 20260505204508 | 27 | 155 | 3.2 | 17.7 | 0.00 | 0.00 | 0.00 | 33 | 1004.2 |
| 20260505203015 | 27 | 158 | 6.4 | 37.0 | 0.00 | 0.00 | 0.00 | 32 | 1004.1 |
| 20260505194506 | 27 | 311 | 4.8 | 20.9 | 0.00 | 0.00 | 0.00 | 31 | 1004.5 |
| 20260505193015 | 26 | 190 | 11.3 | 33.8 | 0.00 | 0.00 | 0.00 | 32 | 1004.9 |
| 20260505191516 | 27 | 259 | 6.4 | 22.5 | 0.00 | 0.00 | 0.00 | 33 | 1004.8 |
| 20260505190019 | 27 | 173 | 8.0 | 24.1 | 0.00 | 0.00 | 0.00 | 31 | 1005.1 |
| 20260505184525 | 27 | 236 | 9.7 | 27.4 | 0.00 | 0.00 | 0.00 | 31 | 1004.9 |
| 20260505183010 | 27 | 208 | 11.3 | 25.7 | 0.00 | 0.00 | 0.00 | 31 | 1005.3 |
| 20260505181515 | 27 | 192 | 4.8 | 24.1 | 0.00 | 0.00 | 0.00 | 33 | 1005.3 |
| 20260505180018 | 27 | 212 | 6.4 | 22.5 | 0.00 | 0.00 | 0.00 | 34 | 1005.6 |
| 20260505174521 | 27 | 281 | 8.0 | 24.1 | 0.00 | 0.00 | 0.00 | 31 | 1005.5 |
| 20260505173008 | 27 | 243 | 3.2 | 22.5 | 0.00 | 0.00 | 0.00 | 35 | 1005.7 |
| 20260505171511 | 27 | 271 | 6.4 | 29.0 | 0.00 | 0.00 | 0.00 | 34 | 1005.9 |
| 20260505170021 | 26 | 225 | 8.0 | 35.4 | 0.00 | 0.00 | 0.00 | 35 | 1006.1 |
| 20260505164518 | 26 | 252 | 4.8 | 19.3 | 0.00 | 0.00 | 0.00 | 36 | 1006.2 |
| 20260505163024 | 25 | 296 | 3.2 | 14.5 | 0.00 | 0.00 | 0.00 | 41 | 1006.5 |
| 20260505153019 | 25 | 130 | 1.6 | 6.4 | 0.00 | 0.00 | 0.00 | 43 | 1007.2 |
| 20260505151525 | 25 | 184 | 3.2 | 12.9 | 0.00 | 0.00 | 0.00 | 45 | 1007.4 |
| 20260505124554 | 11 | 0.0 | 0.0 | 0.00 | 0.00 | 0.00 | 80 | 1009.2 | |
| 20260505124542 | 10 | 64 | 0.0 | 0.0 | 0.00 | 0.00 | 0.00 | 81 | 1009.1 |
| 20260505124458 | 7 | 28 | 0.0 | 3.2 | 0.00 | 0.00 | 0.00 | 88 | 1009.5 |
| 20260505124448 | 7 | 25 | 0.0 | 0.0 | 0.00 | 0.00 | 0.00 | 90 | 1009.4 |
| 20260505124445 | 6 | 25 | 0.0 | 3.2 | 0.00 | 0.00 | 0.00 | 91 | 1009.3 |
| 20260505124437 | 6 | 25 | 0.0 | 3.2 | 0.00 | 0.00 | 0.00 | 90 | 1009.2 |
| 20260505124430 | 6 | 25 | 0.0 | 0.0 | 0.00 | 0.00 | 0.00 | 91 | 1009.2 |
| 20260505124423 | 6 | 25 | 0.0 | 3.2 | 0.00 | 0.00 | 0.00 | 91 | 1009.0 |
| 20260505124419 | 6 | 351 | 0.0 | 3.2 | 0.00 | 0.00 | 0.00 | 91 | 1008.9 |
| 20260505124415 | 6 | 351 | 0.0 | 3.2 | 0.00 | 0.00 | 0.00 | 90 | 1008.5 |
| 20260505124405 | 6 | 338 | 0.0 | 3.2 | 0.00 | 0.00 | 0.00 | 90 | 1008.5 |
| 20260505124357 | 6 | 338 | 0.0 | 0.0 | 0.00 | 0.00 | 0.00 | 89 | 1008.6 |
| 20260505124347 | 6 | 338 | 0.0 | 0.0 | 0.00 | 0.00 | 0.00 | 89 | 1008.6 |
| 20260505124342 | 6 | 338 | 0.0 | 3.2 | 0.00 | 0.00 | 0.00 | 89 | 1008.7 |
| 20260505124337 | 6 | 83 | 0.0 | 0.0 | 0.00 | 0.00 | 0.00 | 88 | 1008.8 |
| 20260505124330 | 7 | 83 | 0.0 | 0.0 | 0.00 | 0.00 | 0.00 | 88 | 1009.1 |
| 20260505124323 | 7 | 83 | 0.0 | 0.0 | 0.00 | 0.00 | 0.00 | 87 | 1008.9 |
| 20260505124314 | 7 | 83 | 0.0 | 0.0 | 0.00 | 0.00 | 0.00 | 87 | 1008.9 |
| 20260505124310 | 7 | 83 | 0.0 | 0.0 | 0.00 | 0.00 | 0.00 | 86 | 1008.9 |
| 20260505124304 | 7 | 83 | 0.0 | 0.0 | 0.00 | 0.00 | 0.00 | 86 | 1008.7 |
| 20260505124256 | 7 | 360 | 0.0 | 1.6 | 0.00 | 0.00 | 0.00 | 85 | 1008.9 |
| 20260505124249 | 7 | 360 | 0.0 | 3.2 | 0.00 | 0.00 | 0.00 | 84 | 1008.9 |
| 20260505124244 | 8 | 360 | 0.0 | 3.2 | 0.00 | 0.00 | 0.00 | 83 | 1008.9 |
| 20260505124235 | 8 | 360 | 0.0 | 3.2 | 0.00 | 0.00 | 0.00 | 82 | 1009.1 |
| 20260505124231 | 8 | 360 | 0.0 | 3.2 | 0.00 | 0.00 | 0.00 | 81 | 1009.1 |
| 20260505124225 | 8 | 360 | 0.0 | 3.2 | 0.00 | 0.00 | 0.00 | 80 | 1009.2 |
| 20260505124213 | 8 | 360 | 0.0 | 1.6 | 0.00 | 0.00 | 0.00 | 79 | 1009.4 |
| 20260505124210 | 9 | 360 | 0.0 | 3.2 | 0.00 | 0.00 | 0.00 | 78 | 1009.4 |
| 20260505124204 | 9 | 360 | 0.0 | 3.2 | 0.00 | 0.00 | 0.00 | 1009.3 | |
| 20260505124155 | 10 | 360 | 0.0 | 1.6 | 0.00 | 0.00 | 0.00 | 76 | 1009.5 |
| 20260505124149 | 10 | 360 | 0.0 | 3.2 | 0.00 | 0.00 | 0.00 | 75 | 1009.3 |
| 20260505124142 | 10 | 336 | 0.0 | 3.2 | 0.00 | 0.00 | 0.00 | 74 | 1009.3 |
| 20260505124133 | 10 | 322 | 0.0 | 3.2 | 0.00 | 0.00 | 0.00 | 74 | 1009.3 |
| 20260505124127 | 10 | 333 | 0.0 | 1.6 | 0.00 | 0.00 | 0.00 | 72 | 1009.2 |
| 20260505124121 | 11 | 329 | 0.0 | 0.0 | 0.00 | 0.00 | 0.00 | 70 | 1009.1 |
| 20260505124113 | 11 | 329 | 0.0 | 0.0 | 0.00 | 0.00 | 0.00 | 67 | 1009.0 |
| 20260505124108 | 12 | 331 | 0.0 | 3.2 | 0.00 | 0.00 | 0.00 | 66 | 1009.0 |
| 20260505124100 | 12 | 151 | 0.0 | 4.8 | 0.00 | 0.00 | 0.00 | 63 | 1008.9 |
| 20260505124056 | 13 | 329 | 0.0 | 3.2 | 0.00 | 0.00 | 0.00 | 62 | 1008.9 |
| 20260505124047 | 13 | 304 | 1.6 | 4.8 | 0.00 | 0.00 | 0.00 | 58 | 1008.8 |